Thursday, January 17, 2019, 7:23 PM CST
Back to Local

KMDW, Chicago Midway Airport

Location: Chicago, IL, United States Lat: 41.783
Local Time: 7:23 PM CST ( 1:23 GMT) Lon: -87.75
Time Zone: US/Central Elev: 620 ft

Show me the last for .
Show Decoded

2019-01-17 18:53 METAR KMDW 180053Z 31008KT 9SM OVC023 01/M03 A3004 RMK AO2 SLP184 T00111028 =
2019-01-17 17:53 METAR KMDW 172353Z 29008KT 10SM SCT025 OVC075 01/M03 A3001 RMK AO2 SLP175 4/001
                 T00111028 10022 20006 53010 =
2019-01-17 16:53 METAR KMDW 172253Z 31007KT 7SM OVC021 02/M02 A3000 RMK AO2 SLP169 T00171022 =
2019-01-17 15:53 METAR KMDW 172153Z 31006KT 5SM BR BKN016 OVC022 02/M02 A3000 RMK AO2 SLP169
                 T00171017 =
2019-01-17 14:53 METAR KMDW 172053Z 26004KT 4SM BR BKN013 OVC028 02/M02 A2998 RMK AO2 SLP165
                 T00171017 56018 =
2019-01-17 13:53 METAR KMDW 171953Z 27003KT 4SM BR OVC011 01/M02 A2999 RMK AO2 SLP166 T00111017 =
2019-01-17 12:53 METAR KMDW 171853Z 00000KT 4SM BR OVC010 01/M01 A3000 RMK AO2 SLP169 T00111011 =
2019-01-17 12:41 METAR KMDW 171841Z 00000KT 4SM BR OVC010 01/M02 A3001 RMK AO2 T00061017 =
2019-01-17 11:53 METAR KMDW 171753Z 00000KT 3SM BR OVC008 01/M02 A3004 RMK AO2 SLP183 4/002
                 T00061017 10006 21011 58017 =
2019-01-17 11:11 METAR KMDW 171711Z 00000KT 2SM BR OVC007 00/M01 A3007 RMK AO2 T00001011 =
2019-01-17 10:53 METAR KMDW 171653Z 00000KT 1 3/4SM BR OVC007 00/M02 A3008 RMK AO2 SLP198
                 T00001017 =
2019-01-17 10:01 METAR KMDW 171601Z 36003KT 1 3/4SM BR OVC007 00/M02 A3010 RMK AO2 T00001017 =
2019-01-17 09:53 METAR KMDW 171553Z 00000KT 2SM BR OVC008 00/M02 A3009 RMK AO2 SLP203 T00001017 =
2019-01-17 09:34 METAR KMDW 171534Z 00000KT 2 1/2SM BR OVC009 00/M02 A3009 RMK AO2 T00001022 =
2019-01-17 09:05 METAR KMDW 171505Z 03003KT 3SM BR OVC009 M01/M02 A3009 RMK AO2 T10061022 =
2019-01-17 08:53 METAR KMDW 171453Z 03003KT 4SM BR OVC010 M01/M02 A3009 RMK AO2 SLP202 T10061022
                 55005 =
2019-01-17 07:53 METAR KMDW 171353Z 11005KT 5SM BR OVC011 M01/M03 A3009 RMK AO2 SLP201 T10061028
                 =
2019-01-17 06:53 METAR KMDW 171253Z 10003KT 10SM OVC011 M01/M04 A3010 RMK AO2 SLP204 T10111039 =
2019-01-17 05:53 METAR KMDW 171153Z 11007KT 10SM OVC014 M01/M04 A3011 RMK AO2 SLP207 4/002
                 T10111044 11011 21017 56027 =
2019-01-17 05:17 METAR KMDW 171117Z 11005KT 10SM BKN014 OVC017 M01/M05 A3013 RMK AO2 T10111050 =
2019-01-17 04:53 METAR KMDW 171053Z 10005KT 10SM OVC018 M01/M05 A3013 RMK AO2 SLP216 T10111050 =
2019-01-17 03:53 METAR KMDW 170953Z 09006KT 10SM OVC021 M01/M05 A3016 RMK AO2 SLP226 T10111050 =
2019-01-17 02:53 METAR KMDW 170853Z 08007KT 10SM OVC027 M01/M06 A3019 RMK AO2 SLP235 T10111056
                 58014 =
2019-01-17 01:53 METAR KMDW 170753Z 09006KT 10SM OVC029 M01/M05 A3021 RMK AO2 SLP241 T10111050 =
2019-01-17 00:53 METAR KMDW 170653Z 09008KT 10SM OVC030 M01/M06 A3022 RMK AO2 SLP244 T10111056 =
2019-01-16 23:53 METAR KMDW 170553Z 08006KT 10SM OVC030 M01/M06 A3023 RMK AO2 SLP249 4/002
                 T10111061 11006 21017 400171017 58012 =
2019-01-16 22:53 METAR KMDW 170453Z 08007KT 10SM FEW032 BKN140 OVC180 M02/M07 A3025 RMK AO2
                 SLP258 T10171067 =
2019-01-16 21:53 METAR KMDW 170353Z 08010KT 10SM SCT025 BKN250 M01/M07 A3026 RMK AO2 SLP260
                 T10111067 =
2019-01-16 20:53 METAR KMDW 170253Z 06010KT 10SM OVC025 M01/M06 A3027 RMK AO2 SLP262 T10111061
                 58004 =
2019-01-16 19:53 METAR KMDW 170153Z 07010KT 10SM OVC027 M01/M07 A3028 RMK AO2 SLP265 T10111067 =

Support USWX by starting your Amazon purchase here.